createdAt,value
2023-02-15T00:02:03.593Z,3.60
2023-02-15T00:04:45.517Z,3.60
2023-02-15T00:07:16.128Z,3.60
2023-02-15T00:09:44.390Z,3.50
2023-02-15T00:12:12.303Z,3.50
2023-02-15T00:14:40.371Z,4.10
2023-02-15T00:17:08.321Z,3.40
2023-02-15T00:19:36.288Z,3.40
2023-02-15T00:22:05.530Z,3.50
2023-02-15T00:24:34.978Z,3.40
2023-02-15T00:27:02.940Z,3.40
2023-02-15T00:29:30.914Z,3.40
2023-02-15T00:31:58.884Z,3.40
2023-02-15T00:34:27.593Z,3.40
2023-02-15T00:36:55.567Z,3.40
2023-02-15T00:39:24.720Z,3.30
2023-02-15T00:41:54.044Z,3.30
2023-02-15T00:44:21.988Z,3.30
2023-02-15T00:46:49.977Z,3.30
2023-02-15T00:49:17.965Z,3.30
2023-02-15T00:51:45.950Z,3.30
2023-02-15T00:54:13.922Z,3.30
2023-02-15T00:56:41.909Z,3.20
2023-02-15T00:59:11.734Z,3.20
2023-02-15T01:01:39.864Z,3.20
2023-02-15T01:04:07.875Z,3.20
2023-02-15T01:06:35.864Z,3.10
2023-02-15T01:09:03.836Z,3.20
2023-02-15T01:11:31.871Z,3.10
2023-02-15T01:14:00.116Z,3.20
2023-02-15T01:16:30.181Z,3.10
2023-02-15T01:18:58.476Z,3.10
2023-02-15T01:21:27.670Z,3.10
2023-02-15T01:23:55.651Z,3.10
2023-02-15T01:26:23.637Z,3.10
2023-02-15T01:28:51.649Z,3.00
2023-02-15T01:31:20.532Z,3.00
2023-02-15T01:33:50.011Z,3.00
2023-02-15T01:36:18.490Z,3.00
2023-02-15T01:38:46.523Z,3.00
2023-02-15T01:41:24.910Z,3.00
2023-02-15T01:43:54.020Z,2.90
2023-02-15T01:46:24.150Z,3.00
2023-02-15T01:48:55.982Z,2.90
2023-02-15T01:51:24.979Z,2.90
2023-02-15T01:53:53.938Z,2.80
2023-02-15T01:56:23.659Z,2.90
2023-02-15T01:58:56.183Z,2.80
2023-02-15T02:01:24.519Z,2.80
2023-02-15T02:03:59.914Z,2.70
2023-02-15T02:06:30.687Z,2.70
2023-02-15T02:08:58.990Z,2.70
2023-02-15T02:11:30.148Z,2.70
2023-02-15T02:13:58.136Z,2.60
2023-02-15T02:16:27.509Z,2.60
2023-02-15T02:19:01.774Z,2.60
2023-02-15T02:21:44.336Z,2.60
2023-02-15T02:24:36.260Z,2.50
2023-02-15T02:27:19.035Z,2.50
2023-02-15T02:30:08.629Z,2.50
2023-02-15T02:32:51.791Z,2.50
2023-02-15T02:35:25.419Z,2.40
2023-02-15T02:38:00.817Z,2.40
2023-02-15T02:40:32.488Z,2.30
2023-02-15T02:43:02.236Z,2.30
2023-02-15T02:45:36.081Z,2.60
2023-02-15T02:48:06.188Z,2.30
2023-02-15T02:50:35.509Z,2.20
2023-02-15T02:53:03.467Z,2.20
2023-02-15T02:55:32.487Z,2.20
2023-02-15T02:58:03.017Z,2.20
2023-02-15T03:00:32.525Z,2.10
2023-02-15T03:03:08.726Z,2.10
2023-02-15T03:05:40.294Z,2.10
2023-02-15T03:08:10.741Z,2.00
2023-02-15T03:10:40.160Z,2.00
2023-02-15T03:13:08.291Z,2.00
2023-02-15T03:15:51.319Z,2.00
2023-02-15T03:18:23.560Z,2.00
2023-02-15T03:20:54.318Z,1.90
2023-02-15T03:23:23.879Z,1.90
2023-02-15T03:25:56.195Z,1.90
2023-02-15T03:28:25.681Z,1.90
2023-02-15T03:30:54.525Z,1.90
2023-02-15T03:33:23.889Z,1.90
2023-02-15T03:35:55.124Z,1.80
2023-02-15T03:38:29.228Z,1.80
2023-02-15T03:41:14.843Z,1.80
2023-02-15T03:43:45.865Z,1.80
2023-02-15T03:46:18.702Z,1.80
2023-02-15T03:48:49.577Z,1.80
2023-02-15T03:51:43.714Z,1.80
2023-02-15T03:54:12.450Z,1.70
2023-02-15T03:56:41.171Z,1.70
2023-02-15T03:59:28.546Z,1.70
2023-02-15T04:02:01.668Z,1.70
2023-02-15T04:04:36.888Z,1.60
2023-02-15T04:07:08.531Z,1.70
2023-02-15T04:09:54.714Z,1.60
2023-02-15T04:12:25.757Z,1.60
2023-02-15T04:15:11.293Z,1.60
2023-02-15T04:17:39.319Z,1.60
2023-02-15T04:20:25.276Z,1.60
2023-02-15T04:23:12.205Z,1.60
2023-02-15T04:25:40.161Z,1.60
2023-02-15T04:28:08.621Z,1.60
2023-02-15T04:30:39.329Z,1.50
2023-02-15T04:33:09.251Z,1.50
2023-02-15T04:35:39.963Z,1.50
2023-02-15T04:38:13.750Z,1.50
2023-02-15T04:40:41.671Z,1.40
2023-02-15T04:43:09.641Z,1.50
2023-02-15T04:45:37.607Z,1.50
2023-02-15T04:48:05.602Z,1.40
2023-02-15T04:50:33.532Z,1.50
2023-02-15T04:53:01.507Z,1.50
2023-02-15T04:55:30.817Z,1.40
2023-02-15T04:58:00.003Z,1.40
2023-02-15T05:00:30.589Z,1.40
2023-02-15T05:02:58.602Z,1.40
2023-02-15T05:05:26.564Z,1.40
2023-02-15T05:07:54.822Z,1.40
2023-02-15T05:10:28.228Z,1.40
2023-02-15T05:12:57.567Z,1.40
2023-02-15T05:15:25.515Z,1.40
2023-02-15T05:17:53.474Z,1.30
2023-02-15T05:20:21.428Z,1.30
2023-02-15T05:22:49.439Z,1.30
2023-02-15T05:25:34.961Z,1.30
2023-02-15T05:28:22.409Z,1.30
2023-02-15T05:30:50.883Z,1.30
2023-02-15T05:33:19.197Z,1.30
2023-02-15T05:35:47.156Z,1.30
2023-02-15T05:38:15.105Z,1.30
2023-02-15T05:40:43.108Z,1.30
2023-02-15T05:43:12.472Z,1.30
2023-02-15T05:45:40.485Z,1.30
2023-02-15T05:48:08.451Z,1.20
2023-02-15T05:50:36.391Z,1.20
2023-02-15T05:53:04.344Z,1.20
2023-02-15T05:55:32.351Z,1.20
2023-02-15T05:58:00.324Z,1.20
2023-02-15T06:00:29.733Z,1.10
2023-02-15T06:02:57.672Z,1.10
2023-02-15T06:05:25.725Z,1.10
2023-02-15T06:07:55.052Z,1.10
2023-02-15T06:10:23.012Z,1.10
2023-02-15T06:12:51.017Z,1.10
2023-02-15T06:15:19.143Z,1.10
2023-02-15T06:17:48.600Z,1.10
2023-02-15T06:20:16.687Z,1.10
2023-02-15T06:22:44.698Z,1.10
2023-02-15T06:25:12.639Z,1.10
2023-02-15T06:27:42.817Z,1.10
2023-02-15T06:30:11.771Z,1.00
2023-02-15T06:32:41.452Z,1.10
2023-02-15T06:35:10.819Z,1.00
2023-02-15T06:37:38.805Z,1.00
2023-02-15T06:40:07.477Z,1.10
2023-02-15T06:42:35.470Z,1.20
2023-02-15T06:45:04.301Z,1.10
2023-02-15T06:47:32.499Z,1.10
2023-02-15T06:50:00.478Z,1.10
2023-02-15T06:52:30.534Z,1.10
2023-02-15T06:54:58.506Z,1.10
2023-02-15T06:57:29.264Z,1.10
2023-02-15T06:59:59.315Z,1.10
2023-02-15T07:02:27.245Z,1.10
2023-02-15T07:04:55.269Z,1.10
2023-02-15T07:07:23.226Z,1.00
2023-02-15T07:09:52.554Z,1.00
2023-02-15T07:12:37.990Z,1.10
2023-02-15T07:15:07.095Z,1.00
2023-02-15T07:17:36.513Z,1.00
2023-02-15T07:20:05.288Z,1.10
2023-02-15T07:22:36.993Z,1.10
2023-02-15T07:25:07.120Z,1.10
2023-02-15T07:27:37.682Z,1.10
2023-02-15T07:30:06.541Z,1.10
2023-02-15T07:32:37.260Z,1.10
2023-02-15T07:35:05.451Z,1.10
2023-02-15T07:37:33.414Z,1.10
2023-02-15T07:40:01.381Z,1.20
2023-02-15T07:42:32.378Z,1.20
2023-02-15T07:45:00.352Z,1.20
2023-02-15T07:47:28.542Z,1.20
2023-02-15T07:49:56.575Z,1.20
2023-02-15T07:52:24.513Z,1.30
2023-02-15T07:54:52.492Z,1.30
2023-02-15T07:57:20.721Z,1.40
2023-02-15T07:59:50.117Z,1.30
2023-02-15T08:02:18.552Z,1.40
2023-02-15T08:04:48.648Z,1.50
2023-02-15T08:07:16.602Z,1.60
2023-02-15T08:09:46.002Z,1.60
2023-02-15T08:12:13.958Z,1.70
2023-02-15T08:14:41.924Z,1.80
2023-02-15T08:17:11.231Z,1.80
2023-02-15T08:19:39.308Z,1.90
2023-02-15T08:22:08.268Z,1.90
2023-02-15T08:24:38.207Z,2.00
2023-02-15T08:27:06.819Z,2.10
2023-02-15T08:29:35.747Z,2.20
2023-02-15T08:32:05.665Z,2.30
2023-02-15T08:34:35.967Z,2.40
2023-02-15T08:37:05.164Z,2.40
2023-02-15T08:39:33.180Z,2.50
2023-02-15T08:42:01.482Z,2.60
2023-02-15T08:44:30.441Z,2.60
2023-02-15T08:47:03.736Z,2.70
2023-02-15T08:49:31.795Z,2.80
2023-02-15T08:52:01.696Z,2.80
2023-02-15T08:54:29.717Z,2.90
2023-02-15T08:56:57.853Z,3.00
2023-02-15T08:59:27.787Z,3.10
2023-02-15T09:01:56.397Z,3.10
2023-02-15T09:04:24.663Z,3.20
2023-02-15T09:06:53.129Z,3.30
2023-02-15T09:09:22.952Z,3.30
2023-02-15T09:11:56.222Z,3.40
2023-02-15T09:14:27.610Z,3.40
2023-02-15T09:16:56.209Z,3.40
2023-02-15T09:19:25.241Z,3.50
2023-02-15T09:21:53.735Z,3.60
2023-02-15T09:24:23.386Z,3.60
2023-02-15T09:26:51.378Z,3.60
2023-02-15T09:29:19.864Z,3.70
2023-02-15T09:31:50.801Z,3.70
2023-02-15T09:34:19.747Z,3.80
2023-02-15T09:36:47.925Z,3.90
2023-02-15T09:39:16.912Z,3.90
2023-02-15T09:42:02.798Z,4.00
2023-02-15T09:44:37.029Z,4.10
2023-02-15T09:47:16.096Z,4.20
2023-02-15T09:49:47.896Z,4.20
2023-02-15T09:52:24.518Z,4.30
2023-02-15T09:55:03.021Z,4.40
2023-02-15T09:57:36.488Z,4.50
2023-02-15T10:00:10.360Z,4.50
2023-02-15T10:02:46.231Z,4.60
2023-02-15T10:05:22.743Z,4.60
2023-02-15T10:08:08.230Z,4.70
2023-02-15T10:10:42.333Z,4.80
2023-02-15T10:13:22.329Z,4.80
2023-02-15T10:15:56.700Z,4.90
2023-02-15T10:18:31.817Z,5.00
2023-02-15T10:21:03.868Z,5.00
2023-02-15T10:23:40.597Z,5.20
2023-02-15T10:26:14.832Z,5.30
2023-02-15T10:28:46.780Z,5.40
2023-02-15T10:31:18.308Z,5.40
2023-02-15T10:33:46.753Z,5.50
2023-02-15T10:36:20.718Z,5.60
2023-02-15T10:38:52.166Z,5.70
2023-02-15T10:41:31.734Z,5.80
2023-02-15T10:44:06.718Z,5.90
2023-02-15T10:46:42.446Z,6.00
2023-02-15T10:49:28.225Z,6.10
2023-02-15T10:52:02.312Z,6.10
2023-02-15T10:54:34.551Z,6.20
2023-02-15T10:57:07.113Z,6.30
2023-02-15T10:59:53.814Z,6.40
2023-02-15T11:02:27.943Z,6.50
2023-02-15T11:05:00.541Z,6.60
2023-02-15T11:07:31.347Z,6.60
2023-02-15T11:10:02.672Z,6.70
2023-02-15T11:12:31.578Z,6.80
2023-02-15T11:15:04.746Z,6.90
2023-02-15T11:17:37.391Z,7.00
2023-02-15T11:20:10.053Z,7.10
2023-02-15T11:22:38.234Z,7.20
2023-02-15T11:25:16.425Z,7.30
2023-02-15T11:27:47.321Z,7.40
2023-02-15T11:30:16.541Z,7.50
2023-02-15T11:32:47.669Z,7.60
2023-02-15T11:35:22.019Z,7.70
2023-02-15T11:37:52.355Z,7.80
2023-02-15T11:40:25.618Z,8.00
2023-02-15T11:42:56.720Z,8.10
2023-02-15T11:45:28.129Z,8.10
2023-02-15T11:47:58.097Z,8.30
2023-02-15T11:50:27.475Z,8.40
2023-02-15T11:52:58.686Z,8.40
2023-02-15T11:55:27.202Z,8.50
2023-02-15T11:57:57.318Z,8.60
2023-02-15T12:00:32.319Z,8.80
2023-02-15T12:03:03.997Z,8.90
2023-02-15T12:05:32.358Z,9.00
2023-02-15T12:08:04.906Z,9.10
2023-02-15T12:10:35.992Z,9.20
2023-02-15T12:13:13.382Z,9.30
2023-02-15T12:15:43.183Z,9.40
2023-02-15T12:18:20.920Z,9.50
2023-02-15T12:20:49.418Z,9.60
2023-02-15T12:23:17.719Z,9.70
2023-02-15T12:25:52.845Z,9.80
2023-02-15T12:28:25.589Z,9.90
2023-02-15T12:30:54.950Z,10.10
2023-02-15T12:33:28.248Z,10.20
2023-02-15T12:36:01.883Z,10.40
2023-02-15T12:38:30.677Z,10.60
2023-02-15T12:41:00.091Z,10.80
2023-02-15T12:43:28.927Z,10.90
2023-02-15T12:46:15.326Z,11.20
2023-02-15T12:48:44.656Z,11.50
2023-02-15T12:51:16.252Z,11.80
2023-02-15T12:53:45.275Z,12.10
2023-02-15T12:56:13.332Z,12.40
2023-02-15T12:58:42.036Z,12.70
2023-02-15T13:01:14.494Z,12.90
2023-02-15T13:03:56.523Z,13.10
2023-02-15T13:06:24.581Z,13.20
2023-02-15T13:08:53.487Z,13.40
2023-02-15T13:11:23.169Z,13.60
2023-02-15T13:14:01.091Z,13.70
2023-02-15T13:16:33.612Z,13.70
2023-02-15T13:19:05.387Z,13.70
2023-02-15T13:21:35.377Z,13.80
2023-02-15T13:24:04.509Z,13.80
2023-02-15T13:26:33.531Z,13.90
2023-02-15T13:29:06.154Z,13.90
2023-02-15T13:31:34.624Z,13.90
2023-02-15T13:34:05.749Z,14.10
2023-02-15T13:36:42.351Z,14.20
2023-02-15T13:39:17.569Z,14.40
2023-02-15T13:41:50.136Z,14.60
2023-02-15T13:44:23.468Z,14.70
2023-02-15T13:46:58.188Z,15.00
2023-02-15T13:49:36.889Z,15.10
2023-02-15T13:52:10.850Z,15.30
2023-02-15T13:54:46.145Z,15.40
2023-02-15T13:57:30.300Z,15.50
2023-02-15T14:00:07.682Z,15.40
2023-02-15T14:02:59.581Z,15.40
2023-02-15T14:05:34.343Z,15.30
2023-02-15T14:08:08.667Z,15.20
2023-02-15T14:10:45.570Z,15.20
2023-02-15T14:13:33.593Z,15.00
2023-02-15T14:16:05.188Z,15.00
2023-02-15T14:18:54.635Z,15.10
2023-02-15T14:21:29.599Z,15.00
2023-02-15T14:24:15.782Z,14.90
2023-02-15T14:26:48.921Z,14.80
2023-02-15T14:29:25.183Z,14.80
2023-02-15T14:31:55.998Z,14.70
2023-02-15T14:34:25.592Z,14.60
2023-02-15T14:36:57.451Z,14.50
2023-02-15T14:39:49.021Z,14.50
2023-02-15T14:42:20.212Z,14.40
2023-02-15T14:44:51.748Z,14.30
2023-02-15T14:47:22.133Z,14.20
2023-02-15T14:49:50.131Z,14.10
2023-02-15T14:52:19.513Z,14.00
2023-02-15T14:55:00.612Z,13.90
2023-02-15T14:57:34.086Z,13.80
2023-02-15T15:00:08.073Z,13.60
2023-02-15T15:02:44.836Z,13.50
2023-02-15T15:05:19.321Z,13.40
2023-02-15T15:07:50.477Z,13.30
2023-02-15T15:10:38.188Z,13.20
2023-02-15T15:13:23.859Z,13.20
2023-02-15T15:15:55.061Z,13.10
2023-02-15T15:18:37.894Z,13.10
2023-02-15T15:21:05.849Z,12.80
2023-02-15T15:23:51.934Z,13.00
2023-02-15T15:26:27.125Z,12.90
2023-02-15T15:28:55.927Z,12.80
2023-02-15T15:31:26.987Z,12.70
2023-02-15T15:34:15.625Z,12.60
2023-02-15T15:37:07.380Z,12.60
2023-02-15T15:39:53.973Z,12.40
2023-02-15T15:42:30.078Z,12.30
2023-02-15T15:45:11.951Z,12.30
2023-02-15T15:48:06.999Z,12.10
2023-02-15T15:50:36.032Z,12.10
2023-02-15T15:53:05.084Z,12.00
2023-02-15T15:55:34.106Z,12.00
2023-02-15T15:58:05.501Z,11.90
2023-02-15T16:00:39.306Z,11.80
2023-02-15T16:03:07.572Z,11.70
2023-02-15T16:05:39.383Z,11.60
2023-02-15T16:08:07.898Z,11.60
2023-02-15T16:10:38.624Z,11.50
2023-02-15T16:13:08.793Z,11.40
2023-02-15T16:15:38.668Z,11.30
2023-02-15T16:18:08.334Z,11.20
2023-02-15T16:20:37.574Z,11.20
2023-02-15T16:23:13.331Z,11.10
2023-02-15T16:25:45.631Z,11.00
2023-02-15T16:28:19.438Z,10.90
2023-02-15T16:30:47.828Z,10.90
2023-02-15T16:33:16.748Z,10.90
2023-02-15T16:35:55.419Z,10.80
2023-02-15T16:38:36.241Z,10.80
2023-02-15T16:41:06.864Z,10.70
2023-02-15T16:43:36.245Z,10.70
2023-02-15T16:46:06.284Z,10.60
2023-02-15T16:48:35.414Z,10.60
2023-02-15T16:51:03.860Z,10.50
2023-02-15T16:53:32.180Z,10.50
2023-02-15T16:56:03.449Z,10.50
2023-02-15T16:58:33.790Z,10.40
2023-02-15T17:01:04.315Z,10.40
2023-02-15T17:03:34.110Z,10.40
2023-02-15T17:06:03.861Z,10.30
2023-02-15T17:08:33.356Z,10.30
2023-02-15T17:11:12.036Z,10.20
2023-02-15T17:14:07.531Z,10.20
2023-02-15T17:16:37.598Z,10.20
2023-02-15T17:19:15.687Z,10.10
2023-02-15T17:21:44.696Z,10.00
2023-02-15T17:24:17.926Z,10.00
2023-02-15T17:26:51.109Z,9.90
2023-02-15T17:29:26.616Z,9.80
2023-02-15T17:31:58.490Z,9.80
2023-02-15T17:34:55.238Z,9.70
2023-02-15T17:37:27.592Z,9.60
2023-02-15T17:39:55.704Z,9.60
2023-02-15T17:42:23.696Z,9.50
2023-02-15T17:44:51.789Z,9.40
2023-02-15T17:47:22.765Z,9.40
2023-02-15T17:49:51.153Z,9.40
2023-02-15T17:52:19.365Z,9.30
2023-02-15T17:55:04.836Z,9.20
2023-02-15T17:57:32.828Z,9.20
2023-02-15T18:00:18.455Z,9.10
2023-02-15T18:03:05.311Z,9.10
2023-02-15T18:05:50.787Z,9.00
2023-02-15T18:08:37.193Z,9.00
2023-02-15T18:11:22.801Z,8.90
2023-02-15T18:13:50.823Z,8.90
2023-02-15T18:16:23.641Z,8.80
2023-02-15T18:18:53.573Z,8.80
2023-02-15T18:21:21.577Z,8.70
2023-02-15T18:23:49.587Z,8.70
2023-02-15T18:26:19.827Z,8.60
2023-02-15T18:28:47.841Z,8.60
2023-02-15T18:31:16.430Z,8.60
2023-02-15T18:33:47.259Z,8.50
2023-02-15T18:36:19.512Z,8.50
2023-02-15T18:38:47.459Z,8.40
2023-02-15T18:41:17.611Z,8.40
2023-02-15T18:43:45.861Z,8.40
2023-02-15T18:46:13.908Z,8.30
2023-02-15T18:48:42.388Z,8.30
2023-02-15T18:51:17.033Z,8.30
2023-02-15T18:53:49.908Z,8.30
2023-02-15T18:56:18.642Z,8.30
2023-02-15T18:58:48.256Z,8.20
2023-02-15T19:01:17.742Z,8.20
2023-02-15T19:03:46.699Z,8.10
2023-02-15T19:06:16.006Z,8.10
2023-02-15T19:08:45.209Z,8.10
2023-02-15T19:11:17.062Z,8.10
2023-02-15T19:13:45.278Z,8.00
2023-02-15T19:16:21.029Z,8.00
2023-02-15T19:18:48.999Z,8.00
2023-02-15T19:21:18.468Z,8.00
2023-02-15T19:23:47.708Z,7.90
2023-02-15T19:26:17.180Z,7.90
2023-02-15T19:28:45.631Z,7.90
2023-02-15T19:31:13.935Z,7.80
2023-02-15T19:33:41.986Z,7.80
2023-02-15T19:36:15.007Z,7.80
2023-02-15T19:38:43.054Z,7.80
2023-02-15T19:41:17.374Z,7.70
2023-02-15T19:43:53.054Z,7.60
2023-02-15T19:46:21.765Z,7.60
2023-02-15T19:48:51.027Z,7.60
2023-02-15T19:51:19.616Z,7.60
2023-02-15T19:53:49.060Z,7.60
2023-02-15T19:56:19.292Z,7.50
2023-02-15T19:58:50.698Z,7.50
2023-02-15T20:01:19.271Z,7.50
2023-02-15T20:03:47.320Z,7.50
2023-02-15T20:06:15.740Z,7.40
2023-02-15T20:08:44.174Z,7.40
2023-02-15T20:11:12.844Z,7.40
2023-02-15T20:13:41.318Z,7.30
2023-02-15T20:16:13.726Z,7.30
2023-02-15T20:18:44.609Z,7.30
2023-02-15T20:21:15.882Z,7.30
2023-02-15T20:23:43.944Z,7.30
2023-02-15T20:26:15.054Z,7.30
2023-02-15T20:28:45.149Z,7.30
2023-02-15T20:31:16.534Z,7.20
2023-02-15T20:33:44.609Z,7.20
2023-02-15T20:36:14.710Z,7.20
2023-02-15T20:38:42.721Z,7.20
2023-02-15T20:41:31.209Z,7.20
2023-02-15T20:43:59.202Z,7.20
2023-02-15T20:46:28.588Z,7.10
2023-02-15T20:48:56.600Z,7.10
2023-02-15T20:51:24.595Z,7.10
2023-02-15T20:53:52.579Z,7.10
2023-02-15T20:56:21.210Z,7.10
2023-02-15T20:58:49.484Z,7.10
2023-02-15T21:01:19.738Z,7.00
2023-02-15T21:03:49.269Z,7.00
2023-02-15T21:06:17.640Z,7.00
2023-02-15T21:08:45.767Z,7.00
2023-02-15T21:11:18.900Z,7.00
2023-02-15T21:13:46.994Z,7.00
2023-02-15T21:16:14.977Z,7.00
2023-02-15T21:18:43.150Z,6.90
2023-02-15T21:21:16.714Z,6.90
2023-02-15T21:23:45.215Z,6.90
2023-02-15T21:26:19.459Z,6.90
2023-02-15T21:28:48.263Z,6.90
2023-02-15T21:31:16.874Z,6.90
2023-02-15T21:33:45.204Z,6.90
2023-02-15T21:36:16.144Z,6.90
2023-02-15T21:38:44.421Z,6.90
2023-02-15T21:41:34.475Z,6.90
2023-02-15T21:44:20.208Z,6.80
2023-02-15T21:47:05.826Z,6.80
2023-02-15T21:49:33.795Z,7.20
2023-02-15T21:52:14.319Z,6.90
2023-02-15T21:54:42.411Z,6.90
2023-02-15T21:57:13.821Z,6.80
2023-02-15T21:59:43.033Z,6.80
2023-02-15T22:02:25.795Z,6.80
2023-02-15T22:04:54.221Z,6.80
2023-02-15T22:07:23.537Z,6.80
2023-02-15T22:09:51.463Z,6.80
2023-02-15T22:12:20.123Z,6.80
2023-02-15T22:14:51.499Z,6.70
2023-02-15T22:17:20.693Z,6.70
2023-02-15T22:19:49.501Z,6.70
2023-02-15T22:22:17.697Z,6.70
2023-02-15T22:24:47.288Z,6.70
2023-02-15T22:27:19.305Z,6.70
2023-02-15T22:29:47.550Z,6.70
2023-02-15T22:32:18.332Z,6.70
2023-02-15T22:34:46.372Z,6.70
2023-02-15T22:37:14.419Z,6.60
2023-02-15T22:39:42.651Z,6.70
2023-02-15T22:42:21.451Z,6.60
2023-02-15T22:44:49.540Z,6.60
2023-02-15T22:47:20.832Z,6.60
2023-02-15T22:49:48.856Z,6.60
2023-02-15T22:52:20.516Z,6.60
2023-02-15T22:54:48.499Z,6.60
2023-02-15T22:57:21.238Z,6.60
2023-02-15T22:59:49.291Z,6.60
2023-02-15T23:02:17.510Z,6.60
2023-02-15T23:04:45.620Z,6.50
2023-02-15T23:07:14.691Z,6.50
2023-02-15T23:09:42.710Z,6.50
2023-02-15T23:12:25.574Z,6.50
2023-02-15T23:14:55.163Z,6.50
2023-02-15T23:17:23.250Z,6.50
2023-02-15T23:19:51.236Z,6.50
2023-02-15T23:22:20.516Z,6.50
2023-02-15T23:24:50.891Z,6.50
2023-02-15T23:27:36.693Z,6.50
2023-02-15T23:30:12.206Z,6.50
2023-02-15T23:32:42.306Z,6.40
2023-02-15T23:35:15.397Z,6.40
2023-02-15T23:37:43.347Z,6.40
2023-02-15T23:40:32.031Z,6.30
2023-02-15T23:43:00.107Z,6.30
2023-02-15T23:45:30.041Z,6.30
2023-02-15T23:48:17.603Z,6.30
2023-02-15T23:50:46.810Z,6.30
2023-02-15T23:53:14.764Z,6.30
2023-02-15T23:55:44.254Z,6.30
2023-02-15T23:58:15.554Z,6.20
